This is the latest recevied weather packets stored in our database for station/object DL9GJ-6. If no packets are shown the sender has not sent any weather packets the latest 10 day(s).
| Time | Temp. | Humidity | Pressure | Rain* | Wind** | Luminosity | Snow |
|---|---|---|---|---|---|---|---|
| 1777793545 | 16.11° C | 65% | 1014.9 hPa | 0 mm | - | 498 W/m² | - |
| 1777793185 | 16.11° C | 65% | 1014.9 hPa | 0 mm | - | 405 W/m² | - |
| 1777792825 | 15.56° C | 66% | 1014.9 hPa | 0 mm | - | 340 W/m² | - |
| 1777792464 | 15.56° C | 67% | 1015 hPa | 0 mm | - | 229 W/m² | - |
| 1777792104 | 15° C | 69% | 1015.1 hPa | 0 mm | - | 236 W/m² | - |
| 1777791745 | 15° C | 68% | 1015.1 hPa | 0 mm | - | 242 W/m² | - |
| 1777791385 | 15° C | 67% | 1015.1 hPa | 0 mm | - | 293 W/m² | - |
| 1777791025 | 15° C | 68% | 1015.1 hPa | 0 mm | - | 372 W/m² | - |
| 1777790664 | 14.44° C | 69% | 1015.2 hPa | 0 mm | - | 510 W/m² | - |
| 1777790304 | 13.89° C | 75% | 1015.2 hPa | 0 mm | - | 489 W/m² | - |
| 1777790291 | 13.89° C | 75% | 1015.2 hPa | 0 mm | - | 489 W/m² | - |
| 1777789944 | 13.33° C | 75% | 1015.2 hPa | 0 mm | - | 471 W/m² | - |
| 1777789584 | 12.78° C | 78% | 1015.2 hPa | 0 mm | - | 437 W/m² | - |
| 1777789224 | 11.67° C | 80% | 1015.2 hPa | 0 mm | - | 386 W/m² | - |
| 1777788864 | 10.56° C | 83% | 1015.1 hPa | 0 mm | - | 330 W/m² | - |
| 1777788504 | 10.56° C | 84% | 1015.2 hPa | 0 mm | - | 268 W/m² | - |
| 1777788145 | 10° C | 85% | 1015.2 hPa | 0 mm | - | 243 W/m² | - |
| 1777787783 | 9.44° C | 87% | 1015.2 hPa | 0 mm | - | 257 W/m² | - |
| 1777787424 | 8.89° C | 88% | 1015.1 hPa | 0 mm | - | 269 W/m² | - |
| 1777787065 | 7.78° C | 90% | 1015.1 hPa | 0 mm | - | 217 W/m² | - |
| 1777787051 | 7.78° C | 90% | 1015.1 hPa | 0 mm | - | 217 W/m² | - |
| 1777786704 | 7.22° C | 90% | 1015.2 hPa | 0 mm | - | 209 W/m² | - |
| 1777786344 | 6.67° C | 90% | 1015.2 hPa | 0 mm | - | 154 W/m² | - |
| 1777786331 | 6.67° C | 90% | 1015.2 hPa | 0 mm | - | 154 W/m² | - |
| 1777785985 | 6.67° C | 91% | 1015.3 hPa | 0 mm | - | 173 W/m² | - |
* Rain latest hour (hover to see other rain measurements)
** Current wind speed in m/s (hover to see current wind gust speed)